createdAt,value
2023-06-24T00:00:02.443Z,82.25
2023-06-24T00:01:08.723Z,81.47
2023-06-24T00:02:10.980Z,81.82
2023-06-24T00:03:13.346Z,81.81
2023-06-24T00:04:16.184Z,80.88
2023-06-24T00:05:18.086Z,80.14
2023-06-24T00:06:21.018Z,80.35
2023-06-24T00:07:23.449Z,79.75
2023-06-24T00:08:35.405Z,80.25
2023-06-24T00:09:37.373Z,78.85
2023-06-24T00:10:39.381Z,80.85
2023-06-24T00:11:41.342Z,80.95
2023-06-24T00:12:43.579Z,81.28
2023-06-24T00:13:45.787Z,79.19
2023-06-24T00:14:48.784Z,80.97
2023-06-24T00:15:50.661Z,79.28
2023-06-24T00:16:52.769Z,79.14
2023-06-24T00:17:54.978Z,78.62
2023-06-24T00:19:02.526Z,78.24
2023-06-24T00:20:12.293Z,78.84
2023-06-24T00:21:14.228Z,79.60
2023-06-24T00:22:16.397Z,80.22
2023-06-24T00:23:25.705Z,79.94
2023-06-24T00:24:27.587Z,79.51
2023-06-24T00:25:31.002Z,81.11
2023-06-24T00:26:33.327Z,81.11
2023-06-24T00:27:35.286Z,81.45
2023-06-24T00:28:37.544Z,81.14
2023-06-24T00:29:39.425Z,81.23
2023-06-24T00:30:41.334Z,81.26
2023-06-24T00:31:43.340Z,81.65
2023-06-24T00:32:46.195Z,81.08
2023-06-24T00:33:48.985Z,80.49
2023-06-24T00:34:52.552Z,81.00
2023-06-24T00:35:55.793Z,80.86
2023-06-24T00:36:57.643Z,80.98
2023-06-24T00:37:59.814Z,81.07
2023-06-24T00:39:06.513Z,80.64
2023-06-24T00:40:17.088Z,80.24
2023-06-24T00:41:19.968Z,80.42
2023-06-24T00:42:21.949Z,80.19
2023-06-24T00:43:23.872Z,79.98
2023-06-24T00:44:26.031Z,78.55
2023-06-24T00:45:27.954Z,80.84
2023-06-24T00:46:30.001Z,79.52
2023-06-24T00:47:35.785Z,78.60
2023-06-24T00:48:38.011Z,78.82
2023-06-24T00:49:40.180Z,77.27
2023-06-24T00:50:46.681Z,77.06
2023-06-24T00:51:51.464Z,77.78
2023-06-24T00:52:53.714Z,77.52
2023-06-24T00:53:55.573Z,77.48
2023-06-24T00:54:57.907Z,76.75
2023-06-24T00:56:03.966Z,76.75
2023-06-24T00:57:06.905Z,77.13
2023-06-24T00:58:09.433Z,77.32
2023-06-24T00:59:14.412Z,78.63
2023-06-24T01:00:19.640Z,80.54
2023-06-24T01:01:22.023Z,79.86
2023-06-24T01:02:29.159Z,79.94
2023-06-24T01:03:31.857Z,79.94
2023-06-24T01:04:34.714Z,79.52
2023-06-24T01:05:37.470Z,79.70
2023-06-24T01:06:44.837Z,79.21
2023-06-24T01:07:55.750Z,80.90
2023-06-24T01:09:01.567Z,81.11
2023-06-24T01:10:07.294Z,80.00
2023-06-24T01:11:10.085Z,80.17
2023-06-24T01:12:11.997Z,79.37
2023-06-24T01:13:13.940Z,78.86
2023-06-24T01:14:21.147Z,79.20
2023-06-24T01:15:23.989Z,79.01
2023-06-24T01:16:52.618Z,78.19
2023-06-24T01:18:03.926Z,80.05
2023-06-24T01:19:26.866Z,78.92
2023-06-24T01:20:37.175Z,78.63
2023-06-24T01:22:14.366Z,78.79
2023-06-24T01:23:38.868Z,79.78
2023-06-24T01:24:51.889Z,79.98
2023-06-24T01:26:17.786Z,79.17
2023-06-24T01:27:23.661Z,76.49
2023-06-24T01:28:57.959Z,77.07
2023-06-24T01:30:28.238Z,76.34
2023-06-24T01:31:49.480Z,75.66
2023-06-24T01:33:09.736Z,78.94
2023-06-24T01:34:20.683Z,78.32
2023-06-24T01:35:26.831Z,78.37
2023-06-24T01:36:34.645Z,79.13
2023-06-24T01:37:41.508Z,79.37
2023-06-24T01:38:53.067Z,78.65
2023-06-24T01:40:01.637Z,78.94
2023-06-24T01:41:05.614Z,79.63
2023-06-24T01:42:15.629Z,78.43
2023-06-24T01:43:18.859Z,75.30
2023-06-24T01:44:22.156Z,76.62
2023-06-24T01:45:30.166Z,76.57
2023-06-24T01:46:32.305Z,77.82
2023-06-24T01:47:36.222Z,80.52
2023-06-24T01:48:43.409Z,81.68
2023-06-24T01:49:46.936Z,81.96
2023-06-24T01:51:10.845Z,79.96
2023-06-24T01:52:14.381Z,79.93
2023-06-24T01:53:18.276Z,79.59
2023-06-24T01:54:23.704Z,81.45
2023-06-24T01:55:27.649Z,82.01
2023-06-24T01:56:30.860Z,82.35
2023-06-24T01:57:34.276Z,80.87
2023-06-24T01:58:37.064Z,80.85
2023-06-24T01:59:42.042Z,81.19
2023-06-24T02:00:44.532Z,79.36
2023-06-24T02:01:47.191Z,78.25
2023-06-24T02:02:50.920Z,78.64
2023-06-24T02:03:54.516Z,79.89
2023-06-24T02:04:57.407Z,79.89
2023-06-24T02:06:00.595Z,80.47
2023-06-24T02:07:04.713Z,82.72
2023-06-24T02:08:09.503Z,81.47
2023-06-24T02:09:12.634Z,82.14
2023-06-24T02:10:15.824Z,82.37
2023-06-24T02:11:21.672Z,82.21
2023-06-24T02:12:27.092Z,81.06
2023-06-24T02:13:33.601Z,80.83
2023-06-24T02:14:37.814Z,81.44
2023-06-24T02:15:41.298Z,81.76
2023-06-24T02:16:45.889Z,80.40
2023-06-24T02:17:51.929Z,80.76
2023-06-24T02:18:56.130Z,79.94
2023-06-24T02:19:59.931Z,79.58
2023-06-24T02:21:04.437Z,79.09
2023-06-24T02:22:10.851Z,78.80
2023-06-24T02:23:14.369Z,78.79
2023-06-24T02:24:16.349Z,79.70
2023-06-24T02:25:18.399Z,81.35
2023-06-24T02:26:21.427Z,78.81
2023-06-24T02:27:24.270Z,80.20
2023-06-24T02:28:26.695Z,80.67
2023-06-24T02:29:30.136Z,81.10
2023-06-24T02:30:33.527Z,81.14
2023-06-24T02:31:35.729Z,81.64
2023-06-24T02:32:39.448Z,81.38
2023-06-24T02:33:41.744Z,81.77
2023-06-24T02:34:43.981Z,82.31
2023-06-24T02:35:47.172Z,81.47
2023-06-24T02:36:49.311Z,81.01
2023-06-24T02:37:51.259Z,80.24
2023-06-24T02:38:53.170Z,79.63
2023-06-24T02:39:55.183Z,79.92
2023-06-24T02:40:57.685Z,79.12
2023-06-24T02:42:00.227Z,79.28
2023-06-24T02:43:02.114Z,79.28
2023-06-24T02:44:05.281Z,79.92
2023-06-24T02:45:08.107Z,80.33
2023-06-24T02:46:12.882Z,79.23
2023-06-24T02:47:18.097Z,78.54
2023-06-24T02:48:22.182Z,79.21
2023-06-24T02:49:24.730Z,79.32
2023-06-24T02:50:27.827Z,79.77
2023-06-24T02:51:31.344Z,79.29
2023-06-24T02:52:34.362Z,78.96
2023-06-24T02:53:38.244Z,77.79
2023-06-24T02:54:41.225Z,78.27
2023-06-24T02:55:45.976Z,79.18
2023-06-24T02:56:49.596Z,77.95
2023-06-24T02:57:54.383Z,78.28
2023-06-24T02:58:58.525Z,77.53
2023-06-24T03:00:00.772Z,80.63
2023-06-24T03:01:08.119Z,78.70
2023-06-24T03:02:11.696Z,78.47
2023-06-24T03:03:14.109Z,77.51
2023-06-24T03:04:16.674Z,76.89
2023-06-24T03:05:19.704Z,77.06
2023-06-24T03:06:22.861Z,76.04
2023-06-24T03:07:26.358Z,76.47
2023-06-24T03:08:29.189Z,76.01
2023-06-24T03:09:35.428Z,75.79
2023-06-24T03:10:38.948Z,74.92
2023-06-24T03:11:42.790Z,75.12
2023-06-24T03:12:45.269Z,75.00
2023-06-24T03:13:48.399Z,75.35
2023-06-24T03:14:50.458Z,74.63
2023-06-24T03:15:53.078Z,74.25
2023-06-24T03:16:58.398Z,74.63
2023-06-24T03:18:01.178Z,74.91
2023-06-24T03:19:03.541Z,75.56
2023-06-24T03:20:06.640Z,75.44
2023-06-24T03:21:09.821Z,76.22
2023-06-24T03:22:12.101Z,77.08
2023-06-24T03:23:14.529Z,77.41
2023-06-24T03:24:16.983Z,78.53
2023-06-24T03:25:19.438Z,76.48
2023-06-24T03:26:22.751Z,77.08
2023-06-24T03:27:25.145Z,78.01
2023-06-24T03:28:27.748Z,78.91
2023-06-24T03:29:30.726Z,79.25
2023-06-24T03:30:33.218Z,80.61
2023-06-24T03:31:35.279Z,80.11
2023-06-24T03:32:37.475Z,79.69
2023-06-24T03:33:39.825Z,79.02
2023-06-24T03:34:42.190Z,78.08
2023-06-24T03:35:44.773Z,78.00
2023-06-24T03:36:47.503Z,78.94
2023-06-24T03:37:50.297Z,79.25
2023-06-24T03:38:52.711Z,79.44
2023-06-24T03:39:57.427Z,79.42
2023-06-24T03:41:00.189Z,80.29
2023-06-24T03:42:02.745Z,80.65
2023-06-24T03:43:04.713Z,79.82
2023-06-24T03:44:06.640Z,79.21
2023-06-24T03:45:09.561Z,81.44
2023-06-24T03:46:12.032Z,81.49
2023-06-24T03:47:14.058Z,78.42
2023-06-24T03:48:16.520Z,78.44
2023-06-24T03:49:19.123Z,78.27
2023-06-24T03:50:21.440Z,77.93
2023-06-24T03:51:23.736Z,78.63
2023-06-24T03:52:26.072Z,77.98
2023-06-24T03:53:28.374Z,77.43
2023-06-24T03:54:30.786Z,78.98
2023-06-24T03:55:33.200Z,81.46
2023-06-24T03:56:35.330Z,81.30
2023-06-24T03:57:37.320Z,80.14
2023-06-24T03:58:39.186Z,80.43
2023-06-24T03:59:41.094Z,79.50
2023-06-24T04:00:44.199Z,79.28
2023-06-24T04:01:46.479Z,77.86
2023-06-24T04:02:48.477Z,77.60
2023-06-24T04:03:50.463Z,76.91
2023-06-24T04:04:53.238Z,76.70
2023-06-24T04:05:56.550Z,77.20
2023-06-24T04:06:58.761Z,77.12
2023-06-24T04:08:00.782Z,77.76
2023-06-24T04:09:03.536Z,76.63
2023-06-24T04:10:09.392Z,76.15
2023-06-24T04:11:12.830Z,75.84
2023-06-24T04:12:15.109Z,76.00
2023-06-24T04:13:17.040Z,76.53
2023-06-24T04:14:19.081Z,75.38
2023-06-24T04:15:20.913Z,74.77
2023-06-24T04:16:23.110Z,75.12
2023-06-24T04:17:25.337Z,75.10
2023-06-24T04:18:27.337Z,75.04
2023-06-24T04:19:30.230Z,75.52
2023-06-24T04:20:32.177Z,75.73
2023-06-24T04:21:34.320Z,76.11
2023-06-24T04:22:41.257Z,76.40
2023-06-24T04:23:43.175Z,76.69
2023-06-24T04:24:45.452Z,76.52
2023-06-24T04:25:47.451Z,75.43
2023-06-24T04:26:49.300Z,75.05
2023-06-24T04:27:53.142Z,75.76
2023-06-24T04:28:55.221Z,76.13
2023-06-24T04:29:58.419Z,75.88
2023-06-24T04:31:00.603Z,76.82
2023-06-24T04:32:02.607Z,76.48
2023-06-24T04:33:04.974Z,75.17
2023-06-24T04:34:06.886Z,75.23
2023-06-24T04:35:09.974Z,75.97
2023-06-24T04:36:12.173Z,74.51
2023-06-24T04:37:14.084Z,73.99
2023-06-24T04:38:19.460Z,73.79
2023-06-24T04:39:21.794Z,73.94
2023-06-24T04:40:23.781Z,73.85
2023-06-24T04:41:26.612Z,73.88
2023-06-24T04:42:28.510Z,73.81
2023-06-24T04:43:30.696Z,74.57
2023-06-24T04:44:32.511Z,74.29
2023-06-24T04:45:35.434Z,73.28
2023-06-24T04:46:38.559Z,72.35
2023-06-24T04:47:40.603Z,72.91
2023-06-24T04:48:42.762Z,72.33
2023-06-24T04:49:44.971Z,71.01
2023-06-24T04:50:46.817Z,71.92
2023-06-24T04:51:48.795Z,70.99
2023-06-24T04:52:55.354Z,71.11
2023-06-24T04:53:57.567Z,71.31
2023-06-24T04:54:59.423Z,71.32
2023-06-24T04:56:01.650Z,70.62
2023-06-24T04:57:03.795Z,70.87
2023-06-24T04:58:05.731Z,71.71
2023-06-24T04:59:07.942Z,71.18
2023-06-24T05:00:10.281Z,70.08
2023-06-24T05:01:12.206Z,68.73
2023-06-24T05:02:14.069Z,69.31
2023-06-24T05:03:15.919Z,68.72
2023-06-24T05:04:18.087Z,69.20
2023-06-24T05:05:21.748Z,69.77
2023-06-24T05:06:24.257Z,70.54
2023-06-24T05:07:26.282Z,69.90
2023-06-24T05:08:28.197Z,69.15
2023-06-24T05:09:30.339Z,68.49
2023-06-24T05:10:32.170Z,68.70
2023-06-24T05:11:34.077Z,67.92
2023-06-24T05:12:35.911Z,67.28
2023-06-24T05:13:38.535Z,67.15
2023-06-24T05:14:40.794Z,68.02
2023-06-24T05:15:42.679Z,67.32
2023-06-24T05:16:45.624Z,67.87
2023-06-24T05:17:47.532Z,68.52
2023-06-24T05:18:49.424Z,67.64
2023-06-24T05:19:51.557Z,67.75
2023-06-24T05:20:53.720Z,66.86
2023-06-24T05:21:55.669Z,66.33
2023-06-24T05:22:57.560Z,65.61
2023-06-24T05:23:59.452Z,66.93
2023-06-24T05:25:01.666Z,66.89
2023-06-24T05:26:04.236Z,66.19
2023-06-24T05:27:07.406Z,65.41
2023-06-24T05:28:09.258Z,65.07
2023-06-24T05:29:11.477Z,65.46
2023-06-24T05:30:15.282Z,65.57
2023-06-24T05:31:17.152Z,66.03
2023-06-24T05:32:21.363Z,65.32
2023-06-24T05:33:23.413Z,64.65
2023-06-24T05:34:25.380Z,65.02
2023-06-24T05:35:27.622Z,64.86
2023-06-24T05:36:29.515Z,64.96
2023-06-24T05:37:31.372Z,64.54
2023-06-24T05:38:33.268Z,64.75
2023-06-24T05:39:35.122Z,64.65
2023-06-24T05:40:37.318Z,63.50
2023-06-24T05:41:39.420Z,63.68
2023-06-24T05:42:41.284Z,64.65
2023-06-24T05:43:44.919Z,64.34
2023-06-24T05:44:46.746Z,64.66
2023-06-24T05:45:48.956Z,64.79
2023-06-24T05:46:51.113Z,63.24
2023-06-24T05:47:53.006Z,62.53
2023-06-24T05:48:54.866Z,62.80
2023-06-24T05:49:56.732Z,63.24
2023-06-24T05:50:58.887Z,63.34
2023-06-24T05:52:00.776Z,64.19
2023-06-24T05:53:02.639Z,62.41
2023-06-24T05:54:04.746Z,62.50
2023-06-24T05:55:06.878Z,63.30
2023-06-24T05:56:09.011Z,64.51
2023-06-24T05:57:11.725Z,62.78
2023-06-24T05:58:13.626Z,63.20
2023-06-24T05:59:15.489Z,63.18
2023-06-24T06:00:19.311Z,62.98
2023-06-24T06:01:21.434Z,62.23
2023-06-24T06:02:23.354Z,62.35
2023-06-24T06:03:25.254Z,63.08
2023-06-24T06:04:27.135Z,62.63
2023-06-24T06:05:28.968Z,62.11
2023-06-24T06:06:31.144Z,62.65
2023-06-24T06:07:33.282Z,61.96
2023-06-24T06:08:35.471Z,61.54
2023-06-24T06:09:37.402Z,62.89
2023-06-24T06:10:39.237Z,62.38
2023-06-24T06:11:41.416Z,62.15
2023-06-24T06:12:43.290Z,62.08
2023-06-24T06:13:45.223Z,62.02
2023-06-24T06:14:47.107Z,61.00
2023-06-24T06:15:49.057Z,62.77
2023-06-24T06:16:51.215Z,62.98
2023-06-24T06:17:53.555Z,61.98
2023-06-24T06:18:55.437Z,61.90
2023-06-24T06:19:57.304Z,62.38
2023-06-24T06:20:59.170Z,63.05
2023-06-24T06:22:01.400Z,64.20
2023-06-24T06:23:03.345Z,63.05
2023-06-24T06:24:05.826Z,62.06
2023-06-24T06:25:08.436Z,62.78
2023-06-24T06:26:10.488Z,64.62
2023-06-24T06:27:13.904Z,62.95
2023-06-24T06:28:15.811Z,61.59
2023-06-24T06:29:17.705Z,62.72
2023-06-24T06:30:19.760Z,62.76
2023-06-24T06:31:22.499Z,62.06
2023-06-24T06:32:24.734Z,60.70
2023-06-24T06:33:26.586Z,59.29
2023-06-24T06:34:28.430Z,59.81
2023-06-24T06:35:30.375Z,61.12
2023-06-24T06:36:32.387Z,59.84
2023-06-24T06:37:34.570Z,60.64
2023-06-24T06:38:36.432Z,60.91
2023-06-24T06:39:38.309Z,59.19
2023-06-24T06:40:40.193Z,60.42
2023-06-24T06:41:42.046Z,60.95
2023-06-24T06:42:50.970Z,60.21
2023-06-24T06:43:53.533Z,60.48
2023-06-24T06:44:55.445Z,60.89
2023-06-24T06:45:57.424Z,60.35
2023-06-24T06:46:59.381Z,60.44
2023-06-24T06:48:01.631Z,60.35
2023-06-24T06:49:03.515Z,60.94
2023-06-24T06:50:05.995Z,60.95
2023-06-24T06:51:07.958Z,61.81
2023-06-24T06:52:09.875Z,60.72
2023-06-24T06:53:12.037Z,61.25
2023-06-24T06:54:13.881Z,60.86
2023-06-24T06:55:15.908Z,61.44
2023-06-24T06:56:19.454Z,61.43
2023-06-24T06:57:21.349Z,61.74
2023-06-24T06:58:23.582Z,61.02
2023-06-24T06:59:25.501Z,60.48
2023-06-24T07:00:27.388Z,60.61
2023-06-24T07:01:29.306Z,59.69
2023-06-24T07:02:31.253Z,60.15
2023-06-24T07:03:33.440Z,60.43
2023-06-24T07:04:35.367Z,60.19
2023-06-24T07:05:39.080Z,59.56
2023-06-24T07:06:41.636Z,59.38
2023-06-24T07:07:46.333Z,59.65
2023-06-24T07:08:48.573Z,59.65
2023-06-24T07:09:50.458Z,60.05
2023-06-24T07:10:52.350Z,58.98
2023-06-24T07:11:54.245Z,59.57
2023-06-24T07:12:59.147Z,58.99
2023-06-24T07:14:01.317Z,58.76
2023-06-24T07:15:03.412Z,57.02
2023-06-24T07:16:05.360Z,57.37
2023-06-24T07:17:08.089Z,57.26
2023-06-24T07:18:09.922Z,58.06
2023-06-24T07:19:12.177Z,57.95
2023-06-24T07:20:14.124Z,57.06
2023-06-24T07:21:15.974Z,56.83
2023-06-24T07:22:17.828Z,59.00
2023-06-24T07:23:19.691Z,56.71
2023-06-24T07:24:21.864Z,56.58
2023-06-24T07:25:23.741Z,55.63
2023-06-24T07:26:25.642Z,55.59
2023-06-24T07:27:27.489Z,55.50
2023-06-24T07:28:29.314Z,55.52
2023-06-24T07:29:31.494Z,55.25
2023-06-24T07:30:33.402Z,54.24
2023-06-24T07:31:38.493Z,54.33
2023-06-24T07:32:40.625Z,54.42
2023-06-24T07:33:42.480Z,54.79
2023-06-24T07:34:44.598Z,54.32
2023-06-24T07:35:46.472Z,54.67
2023-06-24T07:36:48.453Z,54.19
2023-06-24T07:37:50.375Z,53.63
2023-06-24T07:38:52.324Z,53.32
2023-06-24T07:39:54.470Z,54.05
2023-06-24T07:40:56.658Z,53.85
2023-06-24T07:41:58.641Z,54.34
2023-06-24T07:43:00.487Z,54.06
2023-06-24T07:44:02.968Z,53.65
2023-06-24T07:45:05.744Z,53.33
2023-06-24T07:46:08.003Z,52.26
2023-06-24T07:47:09.964Z,50.99
2023-06-24T07:48:11.873Z,51.50
2023-06-24T07:49:13.873Z,50.98
2023-06-24T07:50:16.221Z,50.81
2023-06-24T07:51:19.250Z,50.29
2023-06-24T07:52:21.239Z,53.38
2023-06-24T07:53:23.069Z,53.82
2023-06-24T07:54:24.937Z,53.42
2023-06-24T07:55:27.296Z,52.67
2023-06-24T07:56:29.248Z,52.90
2023-06-24T07:57:31.465Z,51.94
2023-06-24T07:58:34.663Z,51.66
2023-06-24T07:59:36.567Z,51.37
2023-06-24T08:00:39.965Z,51.81
2023-06-24T08:01:42.224Z,52.15
2023-06-24T08:02:44.350Z,52.20
2023-06-24T08:03:46.409Z,51.00
2023-06-24T08:04:48.475Z,51.47
2023-06-24T08:05:51.181Z,51.13
2023-06-24T08:06:53.729Z,52.41
2023-06-24T08:07:55.901Z,51.37
2023-06-24T08:08:57.956Z,51.34
2023-06-24T08:09:59.845Z,51.72
2023-06-24T08:11:01.741Z,52.00
2023-06-24T08:12:04.255Z,51.31
2023-06-24T08:13:06.139Z,51.02
2023-06-24T08:14:08.169Z,50.30
2023-06-24T08:15:10.577Z,50.33
2023-06-24T08:16:12.442Z,50.40
2023-06-24T08:17:14.663Z,50.57
2023-06-24T08:18:16.637Z,50.99
2023-06-24T08:19:18.480Z,50.33
2023-06-24T08:20:24.055Z,50.58
2023-06-24T08:21:26.054Z,50.77
2023-06-24T08:22:28.189Z,52.04
2023-06-24T08:23:30.102Z,52.48
2023-06-24T08:24:32.950Z,51.14
2023-06-24T08:25:35.074Z,50.23
2023-06-24T08:26:37.190Z,50.09
2023-06-24T08:27:39.775Z,50.48
2023-06-24T08:28:41.667Z,49.19
2023-06-24T08:29:43.569Z,49.07
2023-06-24T08:30:45.424Z,49.73
2023-06-24T08:31:47.281Z,49.28
2023-06-24T08:32:49.514Z,48.34
2023-06-24T08:33:54.479Z,48.32
2023-06-24T08:34:56.355Z,48.85
2023-06-24T08:35:58.196Z,48.84
2023-06-24T08:37:00.107Z,48.52
2023-06-24T08:38:02.240Z,49.13
2023-06-24T08:39:04.251Z,48.82
2023-06-24T08:40:06.832Z,48.44
2023-06-24T08:41:08.921Z,47.14
2023-06-24T08:42:10.830Z,47.27
2023-06-24T08:43:13.094Z,47.84
2023-06-24T08:44:15.789Z,48.31
2023-06-24T08:45:17.729Z,48.67
2023-06-24T08:46:21.292Z,48.83
2023-06-24T08:47:25.713Z,48.76
2023-06-24T08:48:29.576Z,47.92
2023-06-24T08:49:32.573Z,48.56
2023-06-24T08:50:37.772Z,48.79
2023-06-24T08:51:42.792Z,48.29
2023-06-24T08:52:54.277Z,47.86
2023-06-24T08:54:04.428Z,48.75
2023-06-24T08:55:08.217Z,48.17
2023-06-24T08:56:11.143Z,50.41
2023-06-24T08:57:15.825Z,48.59
2023-06-24T08:58:17.833Z,49.47
2023-06-24T08:59:21.263Z,49.76
2023-06-24T09:00:23.418Z,49.93
2023-06-24T09:01:28.296Z,49.22
2023-06-24T09:02:34.040Z,48.89
2023-06-24T09:03:36.796Z,47.79
2023-06-24T09:04:39.311Z,49.21
2023-06-24T09:05:41.138Z,47.85
2023-06-24T09:06:43.078Z,46.93
2023-06-24T09:07:44.950Z,49.17
2023-06-24T09:08:57.053Z,51.21
2023-06-24T09:09:59.320Z,50.61
2023-06-24T09:11:01.205Z,48.08
2023-06-24T09:12:03.332Z,48.48
2023-06-24T09:13:07.597Z,50.54
2023-06-24T09:14:13.196Z,51.42
2023-06-24T09:15:16.887Z,50.81
2023-06-24T09:16:18.746Z,50.90
2023-06-24T09:17:23.492Z,51.50
2023-06-24T09:18:33.052Z,50.94
2023-06-24T09:19:37.313Z,50.77
2023-06-24T09:20:45.963Z,51.78
2023-06-24T09:21:47.840Z,53.11
2023-06-24T09:22:50.461Z,52.07
2023-06-24T09:23:54.826Z,52.20
2023-06-24T09:24:56.713Z,52.97
2023-06-24T09:25:59.186Z,53.12
2023-06-24T09:27:01.655Z,52.30
2023-06-24T09:28:04.401Z,53.51
2023-06-24T09:29:06.670Z,53.96
2023-06-24T09:30:22.380Z,53.48
2023-06-24T09:31:25.292Z,54.16
2023-06-24T09:32:36.018Z,54.13
2023-06-24T09:33:37.867Z,52.93
2023-06-24T09:34:40.090Z,53.77
2023-06-24T09:35:43.356Z,53.94
2023-06-24T09:36:51.806Z,54.07
2023-06-24T09:37:55.579Z,54.16
2023-06-24T09:39:11.609Z,54.06
2023-06-24T09:40:20.564Z,54.01
2023-06-24T09:41:22.528Z,54.15
2023-06-24T09:42:24.701Z,54.36
2023-06-24T09:43:27.494Z,53.94
2023-06-24T09:44:29.851Z,54.18
2023-06-24T09:45:31.785Z,53.70
2023-06-24T09:46:36.117Z,54.08
2023-06-24T09:47:38.504Z,54.76
2023-06-24T09:48:40.616Z,54.23
2023-06-24T09:49:42.689Z,54.13
2023-06-24T09:50:44.784Z,53.85
2023-06-24T09:51:48.636Z,52.78
2023-06-24T09:52:51.860Z,52.61
2023-06-24T09:53:55.743Z,52.01
2023-06-24T09:55:00.872Z,52.83
2023-06-24T09:56:05.522Z,53.43
2023-06-24T09:57:08.780Z,53.50
2023-06-24T09:58:12.672Z,53.70
2023-06-24T09:59:15.969Z,51.54
2023-06-24T10:00:20.471Z,52.61
2023-06-24T10:01:23.285Z,52.48
2023-06-24T10:02:25.953Z,51.96
2023-06-24T10:03:28.233Z,51.93
2023-06-24T10:04:31.031Z,53.43
2023-06-24T10:05:33.350Z,52.60
2023-06-24T10:06:35.963Z,52.92
2023-06-24T10:07:38.904Z,50.62
2023-06-24T10:08:40.963Z,51.00
2023-06-24T10:09:44.174Z,51.13
2023-06-24T10:10:46.462Z,51.76
2023-06-24T10:11:48.803Z,51.30
2023-06-24T10:12:50.756Z,52.05
2023-06-24T10:13:53.474Z,51.45
2023-06-24T10:14:55.840Z,49.07
2023-06-24T10:15:58.351Z,48.58
2023-06-24T10:17:05.175Z,48.90
2023-06-24T10:18:31.752Z,49.21
2023-06-24T10:19:42.793Z,48.10
2023-06-24T10:20:49.101Z,50.20
2023-06-24T10:21:55.676Z,49.86
2023-06-24T10:22:59.758Z,49.07
2023-06-24T10:24:05.113Z,47.56
2023-06-24T10:25:08.886Z,47.81
2023-06-24T10:26:12.319Z,49.07
2023-06-24T10:27:24.995Z,48.04
2023-06-24T10:28:27.199Z,47.26
2023-06-24T10:29:37.235Z,47.70
2023-06-24T10:30:39.205Z,49.70
2023-06-24T10:31:41.241Z,48.17
2023-06-24T10:32:44.066Z,47.59
2023-06-24T10:33:54.118Z,47.73
2023-06-24T10:34:57.895Z,48.24
2023-06-24T10:36:01.844Z,47.27
2023-06-24T10:37:15.607Z,47.36
2023-06-24T10:38:17.448Z,47.75
2023-06-24T10:39:53.475Z,46.49
2023-06-24T10:40:55.413Z,47.26
2023-06-24T10:41:57.273Z,47.15
2023-06-24T10:43:01.838Z,46.97
2023-06-24T10:44:16.174Z,45.86
2023-06-24T10:45:20.116Z,48.43
2023-06-24T10:46:22.020Z,47.11
2023-06-24T10:47:25.080Z,47.76
2023-06-24T10:48:26.959Z,48.32
2023-06-24T10:49:29.040Z,47.19
2023-06-24T10:50:31.393Z,47.21
2023-06-24T10:51:33.304Z,47.31
2023-06-24T10:52:40.358Z,48.05
2023-06-24T10:53:42.203Z,48.71
2023-06-24T10:54:44.064Z,48.19
2023-06-24T10:55:49.717Z,47.92
2023-06-24T10:56:54.432Z,47.90
2023-06-24T10:58:11.474Z,47.82
2023-06-24T10:59:14.802Z,46.28
2023-06-24T11:00:17.071Z,45.98
2023-06-24T11:01:19.274Z,47.95
2023-06-24T11:02:23.017Z,46.55
2023-06-24T11:03:25.355Z,48.04
2023-06-24T11:04:27.360Z,46.31
2023-06-24T11:05:32.234Z,45.67
2023-06-24T11:06:34.426Z,47.64
2023-06-24T11:07:38.951Z,49.40
2023-06-24T11:08:48.064Z,47.45
2023-06-24T11:09:52.061Z,47.76
2023-06-24T11:10:54.058Z,48.61
2023-06-24T11:11:56.226Z,49.29
2023-06-24T11:12:59.542Z,48.69
2023-06-24T11:14:03.885Z,48.67
2023-06-24T11:15:06.967Z,47.68
2023-06-24T11:16:08.821Z,47.37
2023-06-24T11:17:11.087Z,48.44
2023-06-24T11:18:12.961Z,50.17
2023-06-24T11:19:14.892Z,49.35
2023-06-24T11:20:17.011Z,49.55
2023-06-24T11:21:18.945Z,50.07
2023-06-24T11:22:21.698Z,50.77
2023-06-24T11:23:23.600Z,49.53
2023-06-24T11:24:25.462Z,51.39
2023-06-24T11:25:27.328Z,50.81
2023-06-24T11:26:29.280Z,50.24
2023-06-24T11:27:32.548Z,50.38
2023-06-24T11:28:34.476Z,50.45
2023-06-24T11:29:36.740Z,49.19
2023-06-24T11:30:38.987Z,50.93
2023-06-24T11:31:41.098Z,49.18
2023-06-24T11:32:45.092Z,48.74
2023-06-24T11:33:50.313Z,48.29
2023-06-24T11:34:52.386Z,48.41
2023-06-24T11:35:54.274Z,49.05
2023-06-24T11:36:56.259Z,48.42
2023-06-24T11:37:59.547Z,48.24
2023-06-24T11:39:01.451Z,48.82
2023-06-24T11:40:08.127Z,48.79
2023-06-24T11:41:10.228Z,48.81
2023-06-24T11:42:13.109Z,49.16
2023-06-24T11:43:15.331Z,50.90
2023-06-24T11:44:19.822Z,51.24
2023-06-24T11:45:23.030Z,51.67
2023-06-24T11:46:28.949Z,49.64
2023-06-24T11:47:37.481Z,49.64
2023-06-24T11:48:42.529Z,50.04
2023-06-24T11:49:56.073Z,47.97
2023-06-24T11:50:57.932Z,48.79
2023-06-24T11:51:59.804Z,49.16
2023-06-24T11:53:01.677Z,49.44
2023-06-24T11:54:06.178Z,48.95
2023-06-24T11:55:21.628Z,48.00
2023-06-24T11:56:44.708Z,47.42
2023-06-24T11:57:55.576Z,47.73
2023-06-24T11:58:58.469Z,47.19
2023-06-24T12:00:00.651Z,47.36
2023-06-24T12:01:03.000Z,47.11
2023-06-24T12:02:05.369Z,47.40
2023-06-24T12:03:11.091Z,45.20
2023-06-24T12:04:14.957Z,45.50
2023-06-24T12:05:29.943Z,47.29
2023-06-24T12:06:32.450Z,46.13
2023-06-24T12:07:35.155Z,46.37
2023-06-24T12:08:51.431Z,45.59
2023-06-24T12:09:54.291Z,46.01
2023-06-24T12:10:56.326Z,45.46
2023-06-24T12:11:59.115Z,44.71
2023-06-24T12:13:02.371Z,44.36
2023-06-24T12:14:04.805Z,44.07
2023-06-24T12:15:09.041Z,45.47
2023-06-24T12:16:11.781Z,45.09
2023-06-24T12:17:14.689Z,45.49
2023-06-24T12:18:17.106Z,46.67
2023-06-24T12:19:19.065Z,46.07
2023-06-24T12:20:21.174Z,47.34
2023-06-24T12:21:23.069Z,45.92
2023-06-24T12:22:24.888Z,45.23
2023-06-24T12:23:27.015Z,46.70
2023-06-24T12:24:28.892Z,47.78
2023-06-24T12:25:30.747Z,48.58
2023-06-24T12:26:33.004Z,49.62
2023-06-24T12:27:35.144Z,49.78
2023-06-24T12:28:37.440Z,48.36
2023-06-24T12:29:39.399Z,48.85
2023-06-24T12:30:41.270Z,48.94
2023-06-24T12:31:43.147Z,48.73
2023-06-24T12:32:46.101Z,47.37
2023-06-24T12:33:48.258Z,49.18
2023-06-24T12:34:50.142Z,49.97
2023-06-24T12:35:52.050Z,49.31
2023-06-24T12:36:53.978Z,49.13
2023-06-24T12:37:56.013Z,48.77
2023-06-24T12:38:58.259Z,49.83
2023-06-24T12:40:04.340Z,50.58
2023-06-24T12:41:06.159Z,48.49
2023-06-24T12:42:08.297Z,47.88
2023-06-24T12:43:10.539Z,48.72
2023-06-24T12:44:12.721Z,49.40
2023-06-24T12:45:14.835Z,49.67
2023-06-24T12:46:16.704Z,49.19
2023-06-24T12:47:19.386Z,49.90
2023-06-24T12:48:21.221Z,50.20
2023-06-24T12:49:23.641Z,50.47
2023-06-24T12:50:25.740Z,51.27
2023-06-24T12:51:27.686Z,51.22
2023-06-24T12:52:29.553Z,50.33
2023-06-24T12:53:31.428Z,50.66
2023-06-24T12:54:33.645Z,50.82
2023-06-24T12:55:35.507Z,50.16
2023-06-24T12:56:37.383Z,49.88
2023-06-24T12:57:39.248Z,50.41
2023-06-24T12:58:41.123Z,50.07
2023-06-24T12:59:43.449Z,49.58
2023-06-24T13:00:45.333Z,49.41
2023-06-24T13:01:47.335Z,50.19
2023-06-24T13:02:50.186Z,49.82
2023-06-24T13:03:52.010Z,49.62
2023-06-24T13:04:54.142Z,49.87
2023-06-24T13:05:56.003Z,50.17
2023-06-24T13:06:57.822Z,49.38
2023-06-24T13:07:59.655Z,49.41
2023-06-24T13:09:01.571Z,50.82
2023-06-24T13:10:06.916Z,49.85
2023-06-24T13:11:08.744Z,49.67
2023-06-24T13:12:10.826Z,49.60
2023-06-24T13:13:12.704Z,48.92
2023-06-24T13:14:14.815Z,49.36
2023-06-24T13:15:17.002Z,49.93
2023-06-24T13:16:18.865Z,50.01
2023-06-24T13:17:20.722Z,50.05
2023-06-24T13:18:22.583Z,49.99
2023-06-24T13:19:24.521Z,49.36
2023-06-24T13:20:26.689Z,48.69
2023-06-24T13:21:28.652Z,48.36
2023-06-24T13:22:30.577Z,47.88
2023-06-24T13:23:32.474Z,47.73
2023-06-24T13:24:34.430Z,47.47
2023-06-24T13:25:38.031Z,46.48
2023-06-24T13:26:40.226Z,47.08
2023-06-24T13:27:42.153Z,48.02
2023-06-24T13:28:44.714Z,48.49
2023-06-24T13:29:46.652Z,49.80
2023-06-24T13:30:48.835Z,49.34
2023-06-24T13:31:50.711Z,49.17
2023-06-24T13:32:52.628Z,49.33
2023-06-24T13:33:54.847Z,50.71
2023-06-24T13:34:56.754Z,51.18
2023-06-24T13:35:58.934Z,52.08
2023-06-24T13:37:00.830Z,49.65
2023-06-24T13:38:02.781Z,49.76